createdAt,value
2019-02-03T00:00:10.626Z,104.53
2019-02-03T00:02:39.363Z,101.30
2019-02-03T00:05:09.108Z,80.80
2019-02-03T00:07:37.900Z,80.23
2019-02-03T00:10:09.207Z,62.53
2019-02-03T00:12:37.932Z,57.57
2019-02-03T00:15:12.124Z,57.23
2019-02-03T00:17:40.850Z,47.57
2019-02-03T00:20:11.575Z,41.87
2019-02-03T00:22:40.809Z,46.93
2019-02-03T00:25:10.424Z,41.67
2019-02-03T00:27:39.139Z,45.63
2019-02-03T00:30:11.244Z,51.50
2019-02-03T00:32:39.969Z,45.43
2019-02-03T00:35:09.273Z,51.73
2019-02-03T00:37:38.179Z,49.97
2019-02-03T00:40:09.931Z,56.30
2019-02-03T00:42:38.675Z,54.20
2019-02-03T00:45:10.497Z,54.00
2019-02-03T00:47:39.229Z,49.53
2019-02-03T00:50:13.690Z,54.47
2019-02-03T00:52:42.556Z,72.13
2019-02-03T00:55:16.906Z,58.53
2019-02-03T00:57:45.702Z,57.27
2019-02-03T01:00:17.492Z,59.17
2019-02-03T01:02:46.227Z,55.93
2019-02-03T01:05:17.727Z,61.37
2019-02-03T01:07:48.126Z,57.30
2019-02-03T01:10:22.125Z,57.40
2019-02-03T01:12:51.130Z,58.93
2019-02-03T01:15:20.139Z,57.77
2019-02-03T01:17:48.895Z,56.80
2019-02-03T01:20:20.557Z,51.13
2019-02-03T01:22:49.708Z,48.27
2019-02-03T01:25:18.913Z,47.60
2019-02-03T01:27:47.628Z,46.73
2019-02-03T01:30:19.154Z,47.47
2019-02-03T01:32:47.889Z,48.60
2019-02-03T01:35:16.718Z,50.07
2019-02-03T01:37:45.484Z,51.60
2019-02-03T01:40:20.913Z,56.07
2019-02-03T01:42:49.882Z,52.60
2019-02-03T01:45:22.898Z,55.00
2019-02-03T01:47:51.629Z,54.00
2019-02-03T01:50:20.912Z,51.40
2019-02-03T01:52:49.637Z,54.10
2019-02-03T01:55:26.517Z,52.17
2019-02-03T01:57:55.345Z,53.27
2019-02-03T02:00:26.516Z,49.47
2019-02-03T02:02:55.784Z,48.50
2019-02-03T02:05:24.610Z,50.93
2019-02-03T02:07:53.332Z,51.60
2019-02-03T02:10:24.634Z,47.73
2019-02-03T02:12:53.363Z,43.13
2019-02-03T02:15:22.391Z,37.07
2019-02-03T02:17:52.452Z,27.43
2019-02-03T02:20:23.627Z,22.50
2019-02-03T02:22:52.461Z,25.50
2019-02-03T02:25:21.483Z,25.80
2019-02-03T02:27:50.322Z,21.07
2019-02-03T02:30:24.267Z,21.07
2019-02-03T02:32:53.128Z,21.97
2019-02-03T02:35:21.960Z,19.87
2019-02-03T02:38:05.144Z,17.20
2019-02-03T02:40:23.004Z,13.80
2019-02-03T02:42:51.840Z,12.13
2019-02-03T02:45:21.266Z,12.47
2019-02-03T02:47:50.054Z,19.07
2019-02-03T02:50:27.495Z,32.30
2019-02-03T02:52:56.373Z,28.57
2019-02-03T02:55:25.204Z,33.27
2019-02-03T02:57:53.988Z,36.80
2019-02-03T03:00:25.371Z,35.07
2019-02-03T03:02:54.139Z,40.23
2019-02-03T03:05:22.962Z,41.03
2019-02-03T03:07:51.861Z,40.47
2019-02-03T03:10:21.365Z,38.20
2019-02-03T03:12:50.410Z,35.77
2019-02-03T03:15:22.991Z,19.70
2019-02-03T03:17:53.327Z,14.80
2019-02-03T03:20:22.752Z,15.23
2019-02-03T03:22:52.670Z,14.47
2019-02-03T03:25:22.293Z,14.83
2019-02-03T03:27:51.411Z,14.37
2019-02-03T03:30:25.620Z,14.73
2019-02-03T03:32:54.539Z,16.37
2019-02-03T03:35:23.867Z,18.97
2019-02-03T03:37:52.735Z,14.93
2019-02-03T03:40:23.865Z,18.57
2019-02-03T03:42:52.680Z,23.50
2019-02-03T03:45:21.591Z,18.43
2019-02-03T03:47:50.357Z,20.57
2019-02-03T03:50:19.647Z,28.03
2019-02-03T03:52:48.513Z,34.57
2019-02-03T03:55:17.241Z,28.43
2019-02-03T03:57:46.068Z,32.20
2019-02-03T04:00:25.813Z,31.73
2019-02-03T04:02:55.376Z,31.50
2019-02-03T04:05:24.740Z,44.63
2019-02-03T04:07:53.639Z,35.00
2019-02-03T04:10:24.066Z,38.63
2019-02-03T04:12:52.788Z,40.90
2019-02-03T04:15:22.421Z,38.53
2019-02-03T04:17:51.337Z,39.47
2019-02-03T04:20:30.521Z,40.23
2019-02-03T04:22:59.350Z,48.53
2019-02-03T04:25:28.178Z,46.00
2019-02-03T04:27:57.500Z,45.17
2019-02-03T04:30:27.678Z,42.30
2019-02-03T04:32:56.440Z,42.97
2019-02-03T04:35:25.262Z,44.83
2019-02-03T04:37:54.016Z,29.93
2019-02-03T04:40:23.335Z,30.17
2019-02-03T04:42:52.221Z,29.63
2019-02-03T04:45:22.690Z,34.00
2019-02-03T04:47:51.396Z,33.73
2019-02-03T04:50:21.710Z,36.37
2019-02-03T04:52:50.432Z,37.67
2019-02-03T04:55:21.335Z,37.23
2019-02-03T04:57:50.124Z,38.93
2019-02-03T05:00:21.213Z,37.73
2019-02-03T05:02:49.948Z,38.23
2019-02-03T05:05:19.210Z,35.07
2019-02-03T05:08:40.873Z,36.47
2019-02-03T05:11:05.858Z,47.10
2019-02-03T05:13:35.158Z,40.93
2019-02-03T05:16:03.891Z,42.20
2019-02-03T05:18:32.717Z,37.83
2019-02-03T05:21:02.937Z,35.70
2019-02-03T05:23:31.658Z,26.47
2019-02-03T05:26:00.447Z,28.50
2019-02-03T05:28:29.547Z,36.30
2019-02-03T05:31:00.835Z,38.23
2019-02-03T05:33:29.718Z,41.87
2019-02-03T05:35:58.442Z,48.67
2019-02-03T05:38:27.165Z,44.90
2019-02-03T05:40:55.967Z,44.37
2019-02-03T05:43:24.697Z,47.10
2019-02-03T05:45:53.435Z,40.37
2019-02-03T05:48:22.312Z,49.33
2019-02-03T05:50:51.041Z,45.47
2019-02-03T05:53:19.790Z,56.57
2019-02-03T05:55:48.667Z,56.47
2019-02-03T05:58:17.395Z,46.20
2019-02-03T06:00:46.121Z,46.17
2019-02-03T06:03:14.974Z,53.03
2019-02-03T06:05:43.699Z,51.47
2019-02-03T06:08:12.435Z,52.87
2019-02-03T06:10:41.753Z,54.90
2019-02-03T06:13:10.449Z,70.30
2019-02-03T06:15:39.188Z,69.17
2019-02-03T06:18:07.988Z,64.13
2019-02-03T06:20:36.721Z,60.90
2019-02-03T06:23:05.673Z,91.47
2019-02-03T06:25:35.263Z,72.43
2019-02-03T06:28:04.199Z,78.30
2019-02-03T06:30:38.579Z,82.57
2019-02-03T06:33:07.306Z,40.33
2019-02-03T06:35:36.138Z,51.47
2019-02-03T06:38:05.203Z,55.67
2019-02-03T06:40:33.929Z,63.20
2019-02-03T06:43:02.661Z,70.87
2019-02-03T06:45:33.004Z,73.67
2019-02-03T06:48:01.740Z,105.00
2019-02-03T06:50:30.482Z,117.77
2019-02-03T06:52:59.369Z,94.73
2019-02-03T06:55:28.095Z,81.27
2019-02-03T06:57:56.823Z,73.57
2019-02-03T07:00:26.044Z,78.47
2019-02-03T07:02:54.767Z,75.53
2019-02-03T07:05:23.489Z,33.30
2019-02-03T07:07:52.349Z,40.47
2019-02-03T07:10:21.097Z,44.53
2019-02-03T07:12:49.823Z,66.70
2019-02-03T07:15:18.704Z,61.90
2019-02-03T07:17:47.443Z,57.83
2019-02-03T07:20:17.780Z,61.53
2019-02-03T07:22:46.554Z,55.90
2019-02-03T07:25:15.278Z,45.70
2019-02-03T07:27:44.012Z,43.23
2019-02-03T07:30:17.945Z,39.50
2019-02-03T07:32:46.666Z,21.57
2019-02-03T07:35:15.494Z,22.60
2019-02-03T07:37:44.264Z,29.57
2019-02-03T07:40:18.567Z,29.97
2019-02-03T07:42:47.290Z,35.30
2019-02-03T07:45:16.167Z,38.57
2019-02-03T07:47:45.207Z,39.07
2019-02-03T07:50:17.634Z,41.40
2019-02-03T07:52:46.535Z,39.23
2019-02-03T07:55:16.065Z,29.77
2019-02-03T07:57:44.791Z,25.93
2019-02-03T08:00:15.857Z,23.73
2019-02-03T08:02:44.683Z,31.00
2019-02-03T08:05:13.592Z,25.37
2019-02-03T08:07:42.378Z,22.10
2019-02-03T08:10:24.563Z,35.03
2019-02-03T08:12:46.315Z,42.57
2019-02-03T08:15:20.609Z,56.17
2019-02-03T08:17:49.501Z,31.47
2019-02-03T08:20:23.258Z,29.53
2019-02-03T08:22:51.977Z,41.13
2019-02-03T08:25:20.910Z,42.73
2019-02-03T08:27:50.340Z,43.60
2019-02-03T08:30:21.924Z,28.93
2019-02-03T08:32:50.654Z,25.00
2019-02-03T08:35:20.902Z,25.17
2019-02-03T08:37:49.978Z,23.20
2019-02-03T08:40:21.683Z,28.50
2019-02-03T08:42:50.681Z,26.33
2019-02-03T08:45:23.867Z,26.83
2019-02-03T08:47:52.601Z,31.40
2019-02-03T08:50:25.793Z,24.90
2019-02-03T08:52:54.900Z,27.77
2019-02-03T08:55:23.634Z,26.77
2019-02-03T08:57:52.414Z,24.57
2019-02-03T09:00:32.067Z,20.23
2019-02-03T09:03:00.845Z,24.87
2019-02-03T09:05:30.050Z,23.00
2019-02-03T09:07:58.788Z,22.80
2019-02-03T09:10:27.560Z,24.77
2019-02-03T09:12:56.301Z,22.23
2019-02-03T09:15:27.944Z,26.27
2019-02-03T09:17:56.872Z,19.63
2019-02-03T09:20:28.055Z,19.87
2019-02-03T09:22:56.883Z,17.07
2019-02-03T09:25:25.696Z,17.07
2019-02-03T09:27:54.420Z,17.97
2019-02-03T09:30:25.609Z,17.30
2019-02-03T09:32:54.959Z,16.93
2019-02-03T09:35:23.686Z,17.47
2019-02-03T09:37:52.619Z,21.30
2019-02-03T09:40:23.910Z,18.07
2019-02-03T09:42:52.914Z,17.47
2019-02-03T09:45:23.246Z,18.40
2019-02-03T09:47:52.288Z,16.50
2019-02-03T09:50:26.375Z,17.20
2019-02-03T09:52:56.904Z,18.40
2019-02-03T09:55:25.647Z,14.93
2019-02-03T09:57:54.683Z,14.73
2019-02-03T10:00:42.371Z,13.03
2019-02-03T10:03:13.019Z,13.97
2019-02-03T10:05:41.781Z,17.23
2019-02-03T10:08:10.585Z,17.03
2019-02-03T10:10:41.802Z,15.67
2019-02-03T10:13:10.834Z,17.50
2019-02-03T10:15:41.396Z,16.13
2019-02-03T10:18:11.738Z,21.07
2019-02-03T10:20:40.751Z,16.97
2019-02-03T10:23:09.546Z,18.37
2019-02-03T10:25:38.278Z,15.33
2019-02-03T10:28:07.480Z,12.33
2019-02-03T10:30:36.443Z,14.20
2019-02-03T10:33:05.577Z,18.57
2019-02-03T10:35:35.739Z,17.10
2019-02-03T10:38:06.183Z,15.47
2019-02-03T10:40:40.568Z,17.67
2019-02-03T10:43:10.255Z,15.47
2019-02-03T10:45:39.103Z,12.23
2019-02-03T10:48:08.053Z,15.73
2019-02-03T10:50:39.413Z,16.90
2019-02-03T10:53:12.792Z,15.63
2019-02-03T10:55:41.627Z,16.50
2019-02-03T10:58:10.616Z,17.97
2019-02-03T11:00:41.993Z,16.53
2019-02-03T11:03:10.715Z,14.07
2019-02-03T11:05:45.517Z,17.70
2019-02-03T11:08:14.456Z,19.20
2019-02-03T11:10:43.214Z,19.33
2019-02-03T11:13:12.203Z,20.03
2019-02-03T11:15:40.931Z,21.60
2019-02-03T11:18:09.676Z,20.73
2019-02-03T11:20:40.795Z,19.77
2019-02-03T11:23:12.366Z,20.80
2019-02-03T11:25:41.208Z,19.73
2019-02-03T11:28:10.100Z,17.20
2019-02-03T11:30:38.938Z,17.97
2019-02-03T11:33:09.744Z,19.20
2019-02-03T11:35:38.382Z,18.23
2019-02-03T11:38:07.406Z,19.40
2019-02-03T11:40:38.043Z,19.27
2019-02-03T11:43:08.095Z,20.23
2019-02-03T11:45:41.780Z,19.10
2019-02-03T11:48:16.246Z,21.33
2019-02-03T11:50:46.295Z,21.37
2019-02-03T11:53:18.072Z,21.87
2019-02-03T11:55:47.045Z,20.57
2019-02-03T11:58:15.976Z,21.83
2019-02-03T12:00:45.200Z,21.73
2019-02-03T12:03:13.974Z,20.53
2019-02-03T12:05:42.714Z,18.67
2019-02-03T12:08:11.432Z,19.47
2019-02-03T12:10:40.213Z,17.83
2019-02-03T12:13:09.252Z,18.30
2019-02-03T12:15:38.171Z,17.77
2019-02-03T12:18:07.297Z,18.03
2019-02-03T12:20:36.535Z,18.97
2019-02-03T12:23:06.068Z,17.53
2019-02-03T12:25:38.071Z,17.67
2019-02-03T12:28:07.740Z,19.97
2019-02-03T12:30:36.587Z,19.83
2019-02-03T12:33:06.827Z,20.67
2019-02-03T12:35:36.164Z,22.23
2019-02-03T12:38:05.716Z,22.83
2019-02-03T12:40:46.220Z,21.60
2019-02-03T12:43:15.862Z,18.93
2019-02-03T12:45:44.609Z,18.93
2019-02-03T12:48:13.396Z,20.63
2019-02-03T12:50:42.123Z,28.20
2019-02-03T12:53:11.282Z,19.77
2019-02-03T12:55:40.155Z,18.30
2019-02-03T12:58:08.885Z,56.13
2019-02-03T13:00:38.025Z,21.10
2019-02-03T13:03:08.711Z,33.90
2019-02-03T13:05:37.442Z,41.50
2019-02-03T13:08:06.691Z,19.70
2019-02-03T13:10:37.388Z,21.53
2019-02-03T13:13:07.245Z,18.07
2019-02-03T13:15:45.075Z,19.03
2019-02-03T13:18:13.993Z,19.40
2019-02-03T13:20:43.248Z,53.00
2019-02-03T13:23:12.377Z,66.33
2019-02-03T13:25:41.215Z,45.70
2019-02-03T13:28:09.953Z,35.57
2019-02-03T13:30:41.422Z,39.57
2019-02-03T13:33:10.632Z,25.97
2019-02-03T13:35:39.359Z,24.47
2019-02-03T13:38:08.486Z,24.23
2019-02-03T13:40:37.443Z,24.20
2019-02-03T13:43:06.678Z,37.90
2019-02-03T13:45:35.796Z,39.13
2019-02-03T13:48:06.897Z,44.10
2019-02-03T13:50:35.640Z,47.57
2019-02-03T13:53:04.737Z,49.03
2019-02-03T13:55:33.744Z,50.90
2019-02-03T13:58:02.486Z,64.60
2019-02-03T14:00:45.765Z,54.37
2019-02-03T14:03:18.789Z,35.27
2019-02-03T14:05:47.520Z,30.37
2019-02-03T14:08:16.440Z,31.43
2019-02-03T14:10:45.340Z,31.57
2019-02-03T14:13:14.076Z,34.40
2019-02-03T14:15:42.864Z,35.07
2019-02-03T14:18:11.698Z,35.27
2019-02-03T14:20:40.448Z,36.70
2019-02-03T14:23:09.328Z,39.77
2019-02-03T14:25:38.083Z,38.53
2019-02-03T14:28:07.831Z,45.20
2019-02-03T14:30:41.919Z,51.63
2019-02-03T14:33:10.864Z,65.20
2019-02-03T14:35:41.029Z,69.73
2019-02-03T14:38:10.441Z,66.47
2019-02-03T14:40:39.182Z,80.67
2019-02-03T14:43:08.101Z,84.73
2019-02-03T14:45:37.716Z,84.20
2019-02-03T14:48:06.546Z,147.33
2019-02-03T14:50:35.776Z,80.80
2019-02-03T14:53:10.521Z,128.13
2019-02-03T14:55:41.999Z,138.87
2019-02-03T14:58:10.750Z,96.67
2019-02-03T15:00:42.487Z,96.87
2019-02-03T15:03:13.996Z,112.00
2019-02-03T15:05:42.743Z,130.33
2019-02-03T15:08:12.747Z,98.20
2019-02-03T15:10:41.508Z,115.57
2019-02-03T15:13:14.172Z,110.63
2019-02-03T15:15:40.861Z,129.93
2019-02-03T15:18:09.705Z,106.10
2019-02-03T15:20:38.555Z,102.90
2019-02-03T15:23:08.371Z,108.37
2019-02-03T15:25:37.124Z,114.67
2019-02-03T15:28:10.420Z,113.77
2019-02-03T15:30:41.754Z,104.10
2019-02-03T15:33:11.056Z,86.40
2019-02-03T15:35:39.806Z,119.10
2019-02-03T15:38:09.199Z,154.40
2019-02-03T15:40:37.945Z,56.47
2019-02-03T15:43:06.863Z,51.03
2019-02-03T15:45:35.728Z,70.97
2019-02-03T15:48:05.160Z,72.33
2019-02-03T15:50:33.905Z,72.87
2019-02-03T15:53:02.808Z,77.87
2019-02-03T15:55:36.742Z,111.67
2019-02-03T15:58:07.963Z,196.53
2019-02-03T16:00:45.851Z,248.53
2019-02-03T16:03:14.743Z,248.87
2019-02-03T16:05:43.474Z,250.43
2019-02-03T16:08:12.282Z,231.90
2019-02-03T16:10:41.268Z,312.57
2019-02-03T16:13:10.115Z,263.73
2019-02-03T16:15:38.881Z,260.30
2019-02-03T16:18:08.293Z,326.87
2019-02-03T16:20:37.017Z,349.07
2019-02-03T16:23:05.957Z,384.00
2019-02-03T16:25:34.737Z,288.77
2019-02-03T16:28:03.480Z,352.57
2019-02-03T16:30:37.790Z,258.40
2019-02-03T16:33:09.327Z,248.10
2019-02-03T16:35:39.746Z,240.60
2019-02-03T16:38:09.478Z,256.07
2019-02-03T16:40:40.923Z,185.80
2019-02-03T16:43:09.664Z,173.17
2019-02-03T16:45:38.418Z,156.67
2019-02-03T16:48:07.711Z,167.63
2019-02-03T16:50:36.560Z,144.97
2019-02-03T16:53:07.569Z,162.70
2019-02-03T16:55:39.289Z,193.93
2019-02-03T16:58:08.071Z,223.33
2019-02-03T17:00:36.813Z,231.47
2019-02-03T17:03:06.530Z,207.80
2019-02-03T17:05:35.375Z,223.53
2019-02-03T17:08:04.921Z,193.77
2019-02-03T17:10:37.968Z,174.20
2019-02-03T17:13:06.779Z,164.63
2019-02-03T17:15:45.115Z,185.73
2019-02-03T17:18:14.170Z,160.10
2019-02-03T17:20:42.920Z,166.03
2019-02-03T17:23:11.742Z,298.93
2019-02-03T17:25:46.042Z,231.40
2019-02-03T17:28:15.856Z,206.87
2019-02-03T17:30:44.657Z,213.50
2019-02-03T17:33:13.405Z,162.73
2019-02-03T17:35:53.556Z,213.13
2019-02-03T17:38:12.887Z,225.87
2019-02-03T17:40:41.624Z,246.47
2019-02-03T17:43:10.646Z,196.70
2019-02-03T17:45:39.898Z,185.03
2019-02-03T17:48:09.917Z,183.97
2019-02-03T17:50:38.648Z,182.97
2019-02-03T17:53:07.572Z,140.53
2019-02-03T17:55:36.284Z,174.70
2019-02-03T17:58:05.433Z,195.93
2019-02-03T18:00:39.000Z,208.70
2019-02-03T18:03:08.242Z,210.57
2019-02-03T18:05:36.986Z,121.50
2019-02-03T18:08:07.758Z,103.57
2019-02-03T18:10:36.868Z,121.07
2019-02-03T18:13:06.608Z,164.23
2019-02-03T18:15:35.503Z,202.97
2019-02-03T18:18:05.610Z,211.70
2019-02-03T18:20:34.355Z,178.33
2019-02-03T18:23:03.515Z,170.80
2019-02-03T18:25:36.644Z,175.33
2019-02-03T18:28:05.581Z,153.20
2019-02-03T18:30:37.312Z,119.27
2019-02-03T18:33:06.645Z,131.60
2019-02-03T18:35:35.443Z,104.03
2019-02-03T18:38:09.934Z,102.53
2019-02-03T18:40:38.695Z,100.23
2019-02-03T18:43:07.534Z,116.20
2019-02-03T18:45:36.804Z,171.47
2019-02-03T18:48:05.744Z,162.47
2019-02-03T18:50:34.959Z,136.93
2019-02-03T18:53:03.900Z,104.07
2019-02-03T18:55:38.451Z,89.13
2019-02-03T18:58:07.702Z,104.70
2019-02-03T19:00:38.370Z,118.10
2019-02-03T19:03:09.284Z,116.93
2019-02-03T19:05:40.717Z,107.80
2019-02-03T19:08:10.371Z,101.00
2019-02-03T19:10:39.117Z,95.30
2019-02-03T19:13:07.864Z,95.63
2019-02-03T19:15:36.665Z,127.77
2019-02-03T19:18:06.406Z,118.30
2019-02-03T19:20:43.711Z,104.57
2019-02-03T19:23:14.049Z,119.07
2019-02-03T19:25:42.995Z,105.80
2019-02-03T19:28:11.924Z,101.87
2019-02-03T19:30:40.653Z,183.47
2019-02-03T19:33:09.388Z,216.30
2019-02-03T19:35:38.185Z,190.63
2019-02-03T19:38:08.124Z,175.87
2019-02-03T19:40:36.870Z,164.23
2019-02-03T19:43:07.560Z,143.00
2019-02-03T19:45:36.433Z,124.60
2019-02-03T19:48:06.156Z,168.83
2019-02-03T19:50:37.715Z,160.33
2019-02-03T19:53:07.583Z,162.53
2019-02-03T19:55:36.312Z,166.87
2019-02-03T19:58:06.984Z,158.73
2019-02-03T20:00:40.995Z,175.80
2019-02-03T20:03:09.830Z,178.47
2019-02-03T20:05:38.921Z,129.63
2019-02-03T20:08:07.850Z,111.67
2019-02-03T20:10:37.370Z,84.47
2019-02-03T20:13:07.314Z,93.60
2019-02-03T20:15:36.150Z,104.23
2019-02-03T20:18:05.688Z,116.50
2019-02-03T20:20:39.218Z,104.00
2019-02-03T20:23:08.316Z,91.93
2019-02-03T20:25:37.048Z,88.47
2019-02-03T20:28:07.734Z,99.30
2019-02-03T20:30:38.990Z,103.47
2019-02-03T20:33:06.932Z,100.83
2019-02-03T20:35:35.955Z,103.40
2019-02-03T20:38:06.698Z,79.07
2019-02-03T20:40:41.423Z,201.23
2019-02-03T20:43:10.303Z,120.73
2019-02-03T20:45:48.918Z,101.70
2019-02-03T20:48:10.837Z,108.20
2019-02-03T20:50:40.047Z,97.47
2019-02-03T20:53:09.718Z,74.27
2019-02-03T20:55:38.589Z,82.53
2019-02-03T20:58:07.316Z,76.57
2019-02-03T21:00:37.452Z,82.30
2019-02-03T21:03:07.001Z,65.43
2019-02-03T21:05:36.006Z,68.40
2019-02-03T21:08:05.252Z,64.67
2019-02-03T21:10:34.153Z,62.47
2019-02-03T21:13:10.627Z,68.97
2019-02-03T21:15:34.277Z,69.63
2019-02-03T21:18:03.771Z,112.77
2019-02-03T21:20:34.601Z,97.37
2019-02-03T21:23:03.543Z,126.63
2019-02-03T21:25:32.719Z,195.53
2019-02-03T21:28:01.455Z,90.80
2019-02-03T21:30:35.888Z,89.43
2019-02-03T21:33:04.951Z,87.33
2019-02-03T21:35:33.672Z,87.77
2019-02-03T21:38:02.602Z,84.07
2019-02-03T21:40:32.373Z,82.57
2019-02-03T21:43:01.103Z,81.37
2019-02-03T21:45:29.858Z,85.57
2019-02-03T21:47:58.719Z,114.87
2019-02-03T21:50:29.749Z,113.50
2019-02-03T21:52:59.186Z,114.93
2019-02-03T21:55:28.058Z,105.93
2019-02-03T21:57:56.886Z,108.27
2019-02-03T22:00:30.981Z,112.27
2019-02-03T22:03:00.161Z,116.70
2019-02-03T22:05:29.493Z,139.03
2019-02-03T22:07:58.227Z,139.70
2019-02-03T22:10:29.791Z,152.43
2019-02-03T22:12:59.006Z,138.70
2019-02-03T22:15:27.746Z,137.50
2019-02-03T22:17:56.640Z,149.60
2019-02-03T22:20:25.477Z,152.33
2019-02-03T22:22:54.215Z,149.13
2019-02-03T22:25:24.121Z,149.40
2019-02-03T22:27:53.331Z,146.17
2019-02-03T22:30:24.272Z,149.30
2019-02-03T22:32:53.140Z,112.30
2019-02-03T22:35:21.871Z,117.17
2019-02-03T22:37:50.604Z,128.23
2019-02-03T22:40:20.727Z,125.83
2019-02-03T22:42:49.460Z,119.83
2019-02-03T22:45:20.497Z,116.27
2019-02-03T22:47:49.327Z,114.70
2019-02-03T22:50:26.337Z,116.00
2019-02-03T22:52:55.232Z,145.00
2019-02-03T22:55:23.959Z,146.73
2019-02-03T22:57:52.687Z,149.47
2019-02-03T23:00:43.916Z,114.83
2019-02-03T23:03:12.920Z,92.77
2019-02-03T23:05:41.642Z,97.13
2019-02-03T23:08:10.414Z,77.93
2019-02-03T23:10:39.134Z,72.23
2019-02-03T23:13:07.856Z,71.73
2019-02-03T23:15:36.778Z,64.03
2019-02-03T23:18:06.171Z,66.60
2019-02-03T23:20:34.939Z,65.63
2019-02-03T23:23:03.831Z,56.13
2019-02-03T23:25:32.562Z,47.13
2019-02-03T23:28:01.284Z,44.00
2019-02-03T23:30:30.069Z,38.30
2019-02-03T23:32:59.273Z,34.10
2019-02-03T23:35:28.000Z,36.57
2019-02-03T23:37:56.849Z,35.90
2019-02-03T23:40:25.575Z,35.90
2019-02-03T23:42:54.305Z,31.30
2019-02-03T23:45:23.066Z,30.20
2019-02-03T23:47:52.066Z,26.97
2019-02-03T23:50:23.840Z,27.80
2019-02-03T23:52:52.697Z,29.03
2019-02-03T23:55:21.433Z,28.90
2019-02-03T23:57:50.168Z,30.00
